American Spirit — WDH4653 — position and weather

sailwx.info

Track history (hours):
 
Tides and Currents Weather Stations Pressure Air Temp Water Temp Dewpoint Dewpoint Depression Visibility Wind Speed Wind Dir Waves Ship Positions

American Spirit

Owner: American Commercial Lines LLC, Jeffersonville, IN. More information available from US FCC via Universal Licensing System and Coast Guard Vessel Documentation Center.

Last reported at 2018-Feb-18 06:30 UTC. Time now 2018-Feb-18 06:51 UTC.
Position N 29°39' W 094°15'.

Length 23 m; draft 2.7 m.

Type: Towing. MMSI: 367619920.

Date/timePositionNaut miles runAvg speedWind from/ knotsBaromVisibWave heightAir tempDewpointWater temp
2018-Feb-18 06:30N 29°39' W 094°15'0 0.0
2018-Feb-18 06:00N 29°39' W 094°15'0 0.0
2018-Feb-18 05:30N 29°39' W 094°15'0 0.0
2018-Feb-18 05:00N 29°39' W 094°15'0 0.1
2018-Feb-18 04:31N 29°39' W 094°15'0 0.0
2018-Feb-18 03:52N 29°39' W 094°15'0 0.0
2018-Feb-18 03:31N 29°39' W 094°15'0 0.1
2018-Feb-18 02:59N 29°39' W 094°15'0 0.0
2018-Feb-18 02:30N 29°39' W 094°15'0 0.0
2018-Feb-18 02:00N 29°39' W 094°15'0 0.0
2018-Feb-18 01:30N 29°39' W 094°15'0 0.0
2018-Feb-18 01:00N 29°39' W 094°15'0 0.0
2018-Feb-18 00:30N 29°39' W 094°15'1 2.8
2018-Feb-18 00:00N 29°40' W 094°14'3 5.5
2018-Feb-17 23:30N 29°41' W 094°11'2 4.2
2018-Feb-17 23:00N 29°42' W 094°09'0 0.0
2018-Feb-17 22:31N 29°42' W 094°09'0 0.0
2018-Feb-17 21:57N 29°42' W 094°09'0 0.0
2018-Feb-17 21:29N 29°42' W 094°09'1 2.8
2018-Feb-17 21:00N 29°43' W 094°08'3 5.5
2018-Feb-17 20:30N 29°44' W 094°05'3 5.4
2018-Feb-17 20:00N 29°46' W 094°03'2 5.0
2018-Feb-17 19:31N 29°48' W 094°01'2 4.6
2018-Feb-17 19:01N 29°49' W 093°58'3 5.8
2018-Feb-17 18:31N 29°52' W 093°56'5 9.0
2018-Feb-17 18:00N 29°55' W 093°53'4 8.1
2018-Feb-17 17:30N 29°58' W 093°51'4 7.3
2018-Feb-17 17:00N 29°60' W 093°47'1 1.8
2018-Feb-17 16:30N 30°00' W 093°46'0 0.0
2018-Feb-17 16:01N 30°00' W 093°46'0 0.0
2018-Feb-17 15:31N 30°00' W 093°46'0 0.0
2018-Feb-17 15:00N 30°00' W 093°46'0 0.0
2018-Feb-17 14:31N 30°00' W 093°46'0 0.0
2018-Feb-17 14:01N 30°00' W 093°46'0 0.0
2018-Feb-17 13:30N 30°00' W 093°46'0 0.0
2018-Feb-17 13:00N 30°00' W 093°46'0 0.0
2018-Feb-17 12:30N 30°00' W 093°46'0 0.0
2018-Feb-17 12:00N 30°00' W 093°46'0 0.0
2018-Feb-17 11:30N 30°00' W 093°46'0 0.0
2018-Feb-17 11:00N 30°00' W 093°46'0 0.1
2018-Feb-17 10:30N 30°00' W 093°46'0 0.0
2018-Feb-17 10:00N 30°00' W 093°46'0 0.0
2018-Feb-17 09:30N 30°00' W 093°46'0 0.0
2018-Feb-17 09:00N 30°00' W 093°46'0 0.0
2018-Feb-17 08:31N 30°00' W 093°46'0 0.0
2018-Feb-17 08:00N 30°00' W 093°46'0 0.0
2018-Feb-17 07:30N 30°00' W 093°46'0 0.0
2018-Feb-17 07:00N 30°00' W 093°46'0 0.0
2018-Feb-17 06:30N 30°00' W 093°46'0 0.0
2018-Feb-17 06:00N 30°00' W 093°46'0 0.0
2018-Feb-17 05:30N 30°00' W 093°46'0 0.0
2018-Feb-17 05:00N 30°00' W 093°46'0 0.0
2018-Feb-17 04:30N 30°00' W 093°46'0 0.0
2018-Feb-17 04:00N 30°00' W 093°46'0 0.0
2018-Feb-17 03:30N 30°00' W 093°46'0 0.0
2018-Feb-17 03:00N 30°00' W 093°46'0 0.0
2018-Feb-17 02:30N 30°00' W 093°46'0 0.0
2018-Feb-17 02:00N 30°00' W 093°46'0 0.0
2018-Feb-17 01:30N 30°00' W 093°46'0 0.0
2018-Feb-17 01:00N 30°00' W 093°46'0 0.0
2018-Feb-17 00:31N 30°00' W 093°46'0 0.0
2018-Feb-17 00:00N 30°00' W 093°46'0 0.0
2018-Feb-16 23:30N 30°00' W 093°46'0 0.0
2018-Feb-16 23:00N 30°00' W 093°46'0 0.0
2018-Feb-16 22:30N 30°00' W 093°46'0 0.0
2018-Feb-16 22:00N 30°00' W 093°46'0 0.0
2018-Feb-16 21:30N 30°00' W 093°46'0 0.0
2018-Feb-16 21:00N 30°00' W 093°46'0 0.0
2018-Feb-16 20:30N 30°00' W 093°46'0 0.0
2018-Feb-16 20:01N 30°00' W 093°46'0 0.0
2018-Feb-16 19:31N 30°00' W 093°46'0 0.0
2018-Feb-16 19:00N 30°00' W 093°46'0 0.0
2018-Feb-16 18:30N 30°00' W 093°46'0 0.0
2018-Feb-16 18:00N 30°00' W 093°46'0 0.0
2018-Feb-16 17:30N 30°00' W 093°46'0 0.0
2018-Feb-16 17:01N 30°00' W 093°46'0 0.0
2018-Feb-16 16:31N 30°00' W 093°46'2 4.0
2018-Feb-16 16:00N 30°02' W 093°44'1 1.8
2018-Feb-16 15:30N 30°03' W 093°44'0 0.1
2018-Feb-16 15:00N 30°03' W 093°44'0 0.0
2018-Feb-16 14:30N 30°03' W 093°44'0 0.0
2018-Feb-16 14:01N 30°03' W 093°44'0 0.0
2018-Feb-16 13:30N 30°03' W 093°44'0 0.0
2018-Feb-16 13:00N 30°03' W 093°44'0 0.0
2018-Feb-16 12:31N 30°03' W 093°44'0 0.0
2018-Feb-16 12:00N 30°03' W 093°44'0 0.0
2018-Feb-16 11:31N 30°03' W 093°44'0 0.0
2018-Feb-16 11:01N 30°03' W 093°44'0 0.0
2018-Feb-16 10:30N 30°03' W 093°44'0 0.0
2018-Feb-16 10:00N 30°03' W 093°44'0 0.0
2018-Feb-16 09:30N 30°03' W 093°44'0 0.0
2018-Feb-16 09:01N 30°03' W 093°44'0 0.0
2018-Feb-16 08:30N 30°03' W 093°44'0 0.0
2018-Feb-16 08:00N 30°03' W 093°44'0 0.0
2018-Feb-16 07:31N 30°03' W 093°44'0 0.0
2018-Feb-16 07:00N 30°03' W 093°44'0 0.0
2018-Feb-16 06:31N 30°03' W 093°44'0 0.0
2018-Feb-16 06:01N 30°03' W 093°44'0 0.0
2018-Feb-16 05:30N 30°03' W 093°44'0 0.0
2018-Feb-16 05:00N 30°03' W 093°44'0 0.0
2018-Feb-16 04:30N 30°03' W 093°44'0 0.0
2018-Feb-16 04:01N 30°03' W 093°44'0 0.0
2018-Feb-16 03:30N 30°03' W 093°44'0 0.0
2018-Feb-16 02:59N 30°03' W 093°44'0 0.0
2018-Feb-16 02:23N 30°03' W 093°44'0 0.0
2018-Feb-16 01:57N 30°03' W 093°44'0 0.0
2018-Feb-16 01:31N 30°03' W 093°44'0 0.0
2018-Feb-16 00:58N 30°03' W 093°44'0 0.0
2018-Feb-16 00:30N 30°03' W 093°44'0 0.0
2018-Feb-16 00:00N 30°03' W 093°44'1 2.7
2018-Feb-15 23:29N 30°03' W 093°42'3 5.6
2018-Feb-15 22:59N 30°04' W 093°39'3 5.4
2018-Feb-15 22:30N 30°04' W 093°36'2 4.6
2018-Feb-15 22:00N 30°04' W 093°34'1 1.1
2018-Feb-15 21:30N 30°04' W 093°33'1 2.4
2018-Feb-15 21:01N 30°04' W 093°31'2 4.7
2018-Feb-15 20:30N 30°04' W 093°29'2 5.0
2018-Feb-15 20:00N 30°04' W 093°26'3 5.4
2018-Feb-15 19:30N 30°04' W 093°23'1 1.3
2018-Feb-15 19:00N 30°04' W 093°22'0 0.1
2018-Feb-15 18:30N 30°04' W 093°22'0 0.0
2018-Feb-15 18:00N 30°04' W 093°22'0 0.0
2018-Feb-15 17:30N 30°04' W 093°22'1 1.2
2018-Feb-15 17:00N 30°04' W 093°21'0 0.0
2018-Feb-15 16:30N 30°04' W 093°21'0 0.0
2018-Feb-15 16:00N 30°04' W 093°21'0 0.0
2018-Feb-15 15:30N 30°04' W 093°21'0 0.0
2018-Feb-15 15:00N 30°04' W 093°21'0 0.0
2018-Feb-15 14:30N 30°04' W 093°21'0 0.9
2018-Feb-15 14:00N 30°04' W 093°22'0 0.7
2018-Feb-15 13:30N 30°04' W 093°22'0 0.0
2018-Feb-15 13:00N 30°04' W 093°22'0 0.0
2018-Feb-15 12:30N 30°04' W 093°22'0 0.0
2018-Feb-15 12:00N 30°04' W 093°22'0 0.0
2018-Feb-15 11:30N 30°04' W 093°22'0 0.0
2018-Feb-15 11:00N 30°04' W 093°22'0 0.0
2018-Feb-15 10:30N 30°04' W 093°22'0 0.0
2018-Feb-15 10:00N 30°04' W 093°22'0 0.0
2018-Feb-15 09:30N 30°04' W 093°22'0 0.0
2018-Feb-15 09:00N 30°04' W 093°22'0 0.0
2018-Feb-15 08:30N 30°04' W 093°22'0 0.0
2018-Feb-15 08:00N 30°04' W 093°22'0 0.0
2018-Feb-15 07:30N 30°04' W 093°22'0 0.0
2018-Feb-15 07:00N 30°04' W 093°22'0 0.0
2018-Feb-15 06:30N 30°04' W 093°22'0 0.0
2018-Feb-15 06:00N 30°04' W 093°22'0 0.0
2018-Feb-15 05:30N 30°04' W 093°22'0 0.0
2018-Feb-15 05:00N 30°04' W 093°22'0 0.0
2018-Feb-15 04:30N 30°04' W 093°22'0 0.0
2018-Feb-15 04:00N 30°04' W 093°22'0 0.0
2018-Feb-15 03:30N 30°04' W 093°22'0 0.0
2018-Feb-15 03:00N 30°04' W 093°22'0 0.0
2018-Feb-15 02:30N 30°04' W 093°22'0 0.0
2018-Feb-15 02:00N 30°04' W 093°22'0 0.0
2018-Feb-15 01:30N 30°04' W 093°22'0 0.0
2018-Feb-15 01:00N 30°04' W 093°22'0 0.0
2018-Feb-15 00:30N 30°04' W 093°22'0 0.0
2018-Feb-15 00:00N 30°04' W 093°22'0 0.0
2018-Feb-14 23:30N 30°04' W 093°22'0 0.0
2018-Feb-14 23:00N 30°04' W 093°22'0 0.0
2018-Feb-14 22:30N 30°04' W 093°22'0 0.0
2018-Feb-14 22:00N 30°04' W 093°22'0 0.0
2018-Feb-14 21:30N 30°04' W 093°22'2 4.6
2018-Feb-14 21:00N 30°04' W 093°25'3 5.8
2018-Feb-14 20:30N 30°04' W 093°28'0 0.4
2018-Feb-14 20:00N 30°04' W 093°28'3 5.2
2018-Feb-14 19:30N 30°04' W 093°25'2 4.8
2018-Feb-14 19:00N 30°04' W 093°22'0 0.9
2018-Feb-14 18:30N 30°04' W 093°22'3 6.2
2018-Feb-14 18:00N 30°04' W 093°25'3 6.1
2018-Feb-14 17:30N 30°04' W 093°29'1 2.0
2018-Feb-14 17:00N 30°04' W 093°28'2 4.6
2018-Feb-14 16:30N 30°04' W 093°25'2 4.9
2018-Feb-14 16:00N 30°04' W 093°22'0 0.6
2018-Feb-14 15:30N 30°04' W 093°22'0 0.0
2018-Feb-14 15:00N 30°04' W 093°22'0 0.0
2018-Feb-14 14:30N 30°04' W 093°22'0 0.0
2018-Feb-14 14:00N 30°04' W 093°22'0 0.0
2018-Feb-14 13:30N 30°04' W 093°22'0 0.0
2018-Feb-14 13:00N 30°04' W 093°22'0 0.0
2018-Feb-14 12:30N 30°04' W 093°22'0 0.0
2018-Feb-14 12:00N 30°04' W 093°22'0 0.0
2018-Feb-14 11:30N 30°04' W 093°22'0 0.0
2018-Feb-14 11:00N 30°04' W 093°22'0 0.0
2018-Feb-14 10:30N 30°04' W 093°22'1 1.7
2018-Feb-14 10:00N 30°04' W 093°21'3 5.6
2018-Feb-14 09:30N 30°06' W 093°20'3 6.5
2018-Feb-14 09:01N 30°10' W 093°19'0 0.1
2018-Feb-14 08:30N 30°10' W 093°19'0 0.0
2018-Feb-14 08:00N 30°10' W 093°19'0 0.0
2018-Feb-14 07:30N 30°10' W 093°19'0 0.0
2018-Feb-14 06:59N 30°10' W 093°19'0 0.0
2018-Feb-14 06:30N 30°10' W 093°19'0 0.0
2018-Feb-14 06:00N 30°10' W 093°19'0 0.0
2018-Feb-14 05:30N 30°10' W 093°19'0 0.0
2018-Feb-14 05:00N 30°10' W 093°19'0 0.0
2018-Feb-14 04:30N 30°10' W 093°19'0 0.0
2018-Feb-14 04:00N 30°10' W 093°19'0 0.0
2018-Feb-14 03:30N 30°10' W 093°19'0 0.0
2018-Feb-14 03:00N 30°10' W 093°19'0 0.0
2018-Feb-14 02:30N 30°10' W 093°19'0 0.0
2018-Feb-14 02:00N 30°10' W 093°19'0 0.0
2018-Feb-14 01:30N 30°10' W 093°19'0 0.0
2018-Feb-14 01:00N 30°10' W 093°19'0 0.0
2018-Feb-14 00:30N 30°10' W 093°19'0 0.0
2018-Feb-14 00:00N 30°10' W 093°19'0 0.0
2018-Feb-13 23:30N 30°10' W 093°19'0 0.0
2018-Feb-13 23:00N 30°10' W 093°19'0 0.0
2018-Feb-13 22:30N 30°10' W 093°19'0 0.0
2018-Feb-13 22:00N 30°10' W 093°19'0 0.0
2018-Feb-13 21:30N 30°10' W 093°19'0 0.0
2018-Feb-13 21:00N 30°10' W 093°19'0 0.0
2018-Feb-13 20:30N 30°10' W 093°19'0 0.0
2018-Feb-13 20:00N 30°10' W 093°19'0 0.0
2018-Feb-13 19:30N 30°10' W 093°19'0 0.0
2018-Feb-13 19:00N 30°10' W 093°19'0 0.0
2018-Feb-13 18:30N 30°10' W 093°19'0 0.0
2018-Feb-13 18:00N 30°10' W 093°19'0 0.0
2018-Feb-13 17:30N 30°10' W 093°19'0 0.0
2018-Feb-13 17:00N 30°10' W 093°19'0 0.2
2018-Feb-13 16:30N 30°10' W 093°20'2 4.1
2018-Feb-13 15:59N 30°07' W 093°20'2 4.2
2018-Feb-13 15:30N 30°05' W 093°20'2 3.4
2018-Feb-13 15:00N 30°04' W 093°21'1 2.2
2018-Feb-13 14:30N 30°04' W 093°22'0 0.0
2018-Feb-13 14:00N 30°04' W 093°22'0 0.0
2018-Feb-13 13:30N 30°04' W 093°22'0 0.0
2018-Feb-13 13:00N 30°04' W 093°22'0 0.0
2018-Feb-13 12:30N 30°04' W 093°22'0 0.0
2018-Feb-13 12:00N 30°04' W 093°22'0 0.0
2018-Feb-13 11:30N 30°04' W 093°22'0 0.0
2018-Feb-13 11:00N 30°04' W 093°22'0 0.0
2018-Feb-13 10:30N 30°04' W 093°22'0 0.0
2018-Feb-13 10:00N 30°04' W 093°22'0 0.0
2018-Feb-13 09:30N 30°04' W 093°22'0 0.0
2018-Feb-13 08:59N 30°04' W 093°22'0 0.1
2018-Feb-13 08:31N 30°04' W 093°22'0 0.0
2018-Feb-13 07:59N 30°04' W 093°22'0 0.0
2018-Feb-13 07:28N 30°04' W 093°22'0 0.0
2018-Feb-13 07:00N 30°04' W 093°22'0 0.0
2018-Feb-13 06:30N 30°04' W 093°22'0 0.0
2018-Feb-13 06:00N 30°04' W 093°22'0 0.0
2018-Feb-13 05:29N 30°04' W 093°22'0 0.0
2018-Feb-13 05:00N 30°04' W 093°22'0 0.0
2018-Feb-13 04:30N 30°04' W 093°22'0 0.0
2018-Feb-13 04:00N 30°04' W 093°22'0 0.0
2018-Feb-13 03:30N 30°04' W 093°22'0 0.0
2018-Feb-13 03:00N 30°04' W 093°22'0 0.0
2018-Feb-13 02:30N 30°04' W 093°22'0 0.0
2018-Feb-13 02:00N 30°04' W 093°22'0 0.0
2018-Feb-13 01:30N 30°04' W 093°22'0 0.0
2018-Feb-13 01:00N 30°04' W 093°22'0 0.0
2018-Feb-13 00:30N 30°04' W 093°22'0 0.0
2018-Feb-13 00:00N 30°04' W 093°22'0 0.0
2018-Feb-12 23:30N 30°04' W 093°22'0 0.0
2018-Feb-12 23:00N 30°04' W 093°22'0 0.0
2018-Feb-12 22:30N 30°04' W 093°22'0 0.0
2018-Feb-12 22:00N 30°04' W 093°22'0 0.0
2018-Feb-12 21:29N 30°04' W 093°22'0 0.0
2018-Feb-12 20:55N 30°04' W 093°22'0 0.0
2018-Feb-12 20:27N 30°04' W 093°22'0 0.0
2018-Feb-12 20:00N 30°04' W 093°22'0 0.7
2018-Feb-12 19:25N 30°04' W 093°21'0 0.0
2018-Feb-12 19:00N 30°04' W 093°21'0 0.0
2018-Feb-12 18:30N 30°04' W 093°21'0 0.0
2018-Feb-12 18:00N 30°04' W 093°21'0 0.0
2018-Feb-12 17:29N 30°04' W 093°21'0 0.6
2018-Feb-12 17:00N 30°04' W 093°22'0 0.3
2018-Feb-12 16:29N 30°04' W 093°22'0 0.0
2018-Feb-12 16:00N 30°04' W 093°22'0 0.0
2018-Feb-12 15:30N 30°04' W 093°22'0 0.0
2018-Feb-12 14:59N 30°04' W 093°22'0 0.0
2018-Feb-12 14:30N 30°04' W 093°22'0 0.0
2018-Feb-12 14:00N 30°04' W 093°22'0 0.0
2018-Feb-12 13:30N 30°04' W 093°22'0 0.0
2018-Feb-12 13:00N 30°04' W 093°22'0 0.1
2018-Feb-12 12:31N 30°04' W 093°22'0 0.1
2018-Feb-12 11:59N 30°04' W 093°22'0 0.3
2018-Feb-12 11:30N 30°04' W 093°22'2 4.7
2018-Feb-12 10:59N 30°04' W 093°25'2 4.9
2018-Feb-12 10:30N 30°04' W 093°28'3 4.9
2018-Feb-12 09:55N 30°04' W 093°31'2 4.9
2018-Feb-12 09:24N 30°04' W 093°34'2 4.8
2018-Feb-12 08:55N 30°04' W 093°37'2 4.9
2018-Feb-12 08:29N 30°04' W 093°39'2 4.9
2018-Feb-12 08:00N 30°03' W 093°42'2 4.2
2018-Feb-12 07:29N 30°03' W 093°44'3 5.6
2018-Feb-12 07:00N 30°00' W 093°46'3 6.1
2018-Feb-12 06:30N 29°59' W 093°49'3 6.1
2018-Feb-12 06:00N 29°57' W 093°52'4 7.3
2018-Feb-12 05:30N 29°54' W 093°54'4 7.2
2018-Feb-12 05:00N 29°51' W 093°57'3 5.3
2018-Feb-12 04:30N 29°49' W 093°59'0 0.1
2018-Feb-12 04:00N 29°49' W 093°59'0 0.0
2018-Feb-12 03:30N 29°49' W 093°59'0 0.1
2018-Feb-12 03:00N 29°49' W 093°59'1 2.7
2018-Feb-12 02:30N 29°48' W 093°60'1 2.3
2018-Feb-12 02:00N 29°47' W 094°01'2 3.9
2018-Feb-12 01:30N 29°46' W 094°03'2 4.6
2018-Feb-12 01:00N 29°45' W 094°05'2 4.5
2018-Feb-12 00:30N 29°43' W 094°07'2 4.2
2018-Feb-12 00:01N 29°42' W 094°09'2 3.9
2018-Feb-11 23:29N 29°41' W 094°11'2 3.4
2018-Feb-11 23:00N 29°41' W 094°12'2 4.1
2018-Feb-11 22:30N 29°40' W 094°15'2 4.1
2018-Feb-11 22:00N 29°39' W 094°17'2 3.7
2018-Feb-11 21:30N 29°38' W 094°19'2 3.2
2018-Feb-11 20:59N 29°37' W 094°20'5 1.5
2018-Feb-11 17:41N 29°34' W 094°25'1 3.2
2018-Feb-11 17:28N 29°34' W 094°26'2 2.0
2018-Feb-11 16:41N 29°34' W 094°28'0 0.0
2018-Feb-11 16:30N 29°34' W 094°28'1 0.8
2018-Feb-11 14:55N 29°33' W 094°28'2 3.4
2018-Feb-11 14:13N 29°31' W 094°31'1 4.1
2018-Feb-11 13:59N 29°31' W 094°31'2 3.5
2018-Feb-11 13:28N 29°30' W 094°33'2 3.1
2018-Feb-11 12:59N 29°29' W 094°35'4 3.8
2018-Feb-11 11:53N 29°28' W 094°39'12 3.3
2018-Feb-11 08:22N 29°30' W 094°52'3 7.9
2018-Feb-11 08:00N 29°33' W 094°54'4 7.5
2018-Feb-11 07:30N 29°36' W 094°57'4 7.4
2018-Feb-11 07:00N 29°39' W 094°58'3 5.0
2018-Feb-11 06:28N 29°41' W 095°00'0 0.2
2018-Feb-11 05:57N 29°41' W 095°00'0 0.0
2018-Feb-11 05:10N 29°41' W 095°00'0 0.0
2018-Feb-11 04:40N 29°41' W 095°00'0 0.0
2018-Feb-11 04:23N 29°41' W 095°00'0 0.0
2018-Feb-11 03:54N 29°41' W 095°00'0 0.0
2018-Feb-11 03:29N 29°41' W 095°00'0 0.0
2018-Feb-11 02:54N 29°41' W 095°00'0 0.0
2018-Feb-11 02:17N 29°41' W 095°00'0 0.0
2018-Feb-11 02:00N 29°41' W 095°00'0 0.0
2018-Feb-11 01:23N 29°41' W 095°00'0 0.0
2018-Feb-11 01:00N 29°41' W 095°00'0 0.0
2018-Feb-11 00:28N 29°41' W 095°00'0 0.1
2018-Feb-11 00:00N 29°41' W 095°00'0 0.0
2018-Feb-10 23:30N 29°41' W 095°00'0 0.0
2018-Feb-10 22:42N 29°41' W 095°00'0 0.0
2018-Feb-10 22:22N 29°41' W 095°00'0 0.0
2018-Feb-10 21:55N 29°41' W 095°00'0 0.1
2018-Feb-10 21:30N 29°41' W 095°00'0 0.0
2018-Feb-10 21:00N 29°41' W 095°00'0 0.0
2018-Feb-10 20:30N 29°41' W 095°00'0 0.0
2018-Feb-10 19:57N 29°41' W 095°00'1 1.9
2018-Feb-10 19:30N 29°41' W 094°59'0 0.0
2018-Feb-08 19:30N 29°41' W 094°59'4 8.5
2018-Feb-08 19:00N 29°37' W 094°57'4 8.7
2018-Feb-08 18:30N 29°33' W 094°55'  
Track history (hours):
 
Tides and Currents Weather Stations Pressure Air Temp Water Temp Dewpoint Dewpoint Depression Visibility Wind Speed Wind Dir Waves Ship Positions

American Spirit

Owner: American Commercial Lines LLC, Jeffersonville, IN. More information available from US FCC via Universal Licensing System and Coast Guard Vessel Documentation Center.

Last reported at 2018-Feb-18 06:30 UTC. Time now 2018-Feb-18 06:51 UTC.
Position N 29°39' W 094°15'.

Length 23 m; draft 2.7 m.

Type: Towing. MMSI: 367619920.

Date/timePositionNaut miles runAvg speedWind from/ knotsBaromVisibWave heightAir tempDewpointWater temp
2018-Feb-18 06:30N 29°39' W 094°15'0 0.0
2018-Feb-18 06:00N 29°39' W 094°15'0 0.0
2018-Feb-18 05:30N 29°39' W 094°15'0 0.0
2018-Feb-18 05:00N 29°39' W 094°15'0 0.1
2018-Feb-18 04:31N 29°39' W 094°15'0 0.0
2018-Feb-18 03:52N 29°39' W 094°15'0 0.0
2018-Feb-18 03:31N 29°39' W 094°15'0 0.1
2018-Feb-18 02:59N 29°39' W 094°15'0 0.0
2018-Feb-18 02:30N 29°39' W 094°15'0 0.0
2018-Feb-18 02:00N 29°39' W 094°15'0 0.0
2018-Feb-18 01:30N 29°39' W 094°15'0 0.0
2018-Feb-18 01:00N 29°39' W 094°15'0 0.0
2018-Feb-18 00:30N 29°39' W 094°15'1 2.8
2018-Feb-18 00:00N 29°40' W 094°14'3 5.5
2018-Feb-17 23:30N 29°41' W 094°11'2 4.2
2018-Feb-17 23:00N 29°42' W 094°09'0 0.0
2018-Feb-17 22:31N 29°42' W 094°09'0 0.0
2018-Feb-17 21:57N 29°42' W 094°09'0 0.0
2018-Feb-17 21:29N 29°42' W 094°09'1 2.8
2018-Feb-17 21:00N 29°43' W 094°08'3 5.5
2018-Feb-17 20:30N 29°44' W 094°05'3 5.4
2018-Feb-17 20:00N 29°46' W 094°03'2 5.0
2018-Feb-17 19:31N 29°48' W 094°01'2 4.6
2018-Feb-17 19:01N 29°49' W 093°58'3 5.8
2018-Feb-17 18:31N 29°52' W 093°56'5 9.0
2018-Feb-17 18:00N 29°55' W 093°53'4 8.1
2018-Feb-17 17:30N 29°58' W 093°51'4 7.3
2018-Feb-17 17:00N 29°60' W 093°47'1 1.8
2018-Feb-17 16:30N 30°00' W 093°46'0 0.0
2018-Feb-17 16:01N 30°00' W 093°46'0 0.0
2018-Feb-17 15:31N 30°00' W 093°46'0 0.0
2018-Feb-17 15:00N 30°00' W 093°46'0 0.0
2018-Feb-17 14:31N 30°00' W 093°46'0 0.0
2018-Feb-17 14:01N 30°00' W 093°46'0 0.0
2018-Feb-17 13:30N 30°00' W 093°46'0 0.0
2018-Feb-17 13:00N 30°00' W 093°46'0 0.0
2018-Feb-17 12:30N 30°00' W 093°46'0 0.0
2018-Feb-17 12:00N 30°00' W 093°46'0 0.0
2018-Feb-17 11:30N 30°00' W 093°46'0 0.0
2018-Feb-17 11:00N 30°00' W 093°46'0 0.1
2018-Feb-17 10:30N 30°00' W 093°46'0 0.0
2018-Feb-17 10:00N 30°00' W 093°46'0 0.0
2018-Feb-17 09:30N 30°00' W 093°46'0 0.0
2018-Feb-17 09:00N 30°00' W 093°46'0 0.0
2018-Feb-17 08:31N 30°00' W 093°46'0 0.0
2018-Feb-17 08:00N 30°00' W 093°46'0 0.0
2018-Feb-17 07:30N 30°00' W 093°46'0 0.0
2018-Feb-17 07:00N 30°00' W 093°46'0 0.0
2018-Feb-17 06:30N 30°00' W 093°46'0 0.0
2018-Feb-17 06:00N 30°00' W 093°46'0 0.0
2018-Feb-17 05:30N 30°00' W 093°46'0 0.0
2018-Feb-17 05:00N 30°00' W 093°46'0 0.0
2018-Feb-17 04:30N 30°00' W 093°46'0 0.0
2018-Feb-17 04:00N 30°00' W 093°46'0 0.0
2018-Feb-17 03:30N 30°00' W 093°46'0 0.0
2018-Feb-17 03:00N 30°00' W 093°46'0 0.0
2018-Feb-17 02:30N 30°00' W 093°46'0 0.0
2018-Feb-17 02:00N 30°00' W 093°46'0 0.0
2018-Feb-17 01:30N 30°00' W 093°46'0 0.0
2018-Feb-17 01:00N 30°00' W 093°46'0 0.0
2018-Feb-17 00:31N 30°00' W 093°46'0 0.0
2018-Feb-17 00:00N 30°00' W 093°46'0 0.0
2018-Feb-16 23:30N 30°00' W 093°46'0 0.0
2018-Feb-16 23:00N 30°00' W 093°46'0 0.0
2018-Feb-16 22:30N 30°00' W 093°46'0 0.0
2018-Feb-16 22:00N 30°00' W 093°46'0 0.0
2018-Feb-16 21:30N 30°00' W 093°46'0 0.0
2018-Feb-16 21:00N 30°00' W 093°46'0 0.0
2018-Feb-16 20:30N 30°00' W 093°46'0 0.0
2018-Feb-16 20:01N 30°00' W 093°46'0 0.0
2018-Feb-16 19:31N 30°00' W 093°46'0 0.0
2018-Feb-16 19:00N 30°00' W 093°46'0 0.0
2018-Feb-16 18:30N 30°00' W 093°46'0 0.0
2018-Feb-16 18:00N 30°00' W 093°46'0 0.0
2018-Feb-16 17:30N 30°00' W 093°46'0 0.0
2018-Feb-16 17:01N 30°00' W 093°46'0 0.0
2018-Feb-16 16:31N 30°00' W 093°46'2 4.0
2018-Feb-16 16:00N 30°02' W 093°44'1 1.8
2018-Feb-16 15:30N 30°03' W 093°44'0 0.1
2018-Feb-16 15:00N 30°03' W 093°44'0 0.0
2018-Feb-16 14:30N 30°03' W 093°44'0 0.0
2018-Feb-16 14:01N 30°03' W 093°44'0 0.0
2018-Feb-16 13:30N 30°03' W 093°44'0 0.0
2018-Feb-16 13:00N 30°03' W 093°44'0 0.0
2018-Feb-16 12:31N 30°03' W 093°44'0 0.0
2018-Feb-16 12:00N 30°03' W 093°44'0 0.0
2018-Feb-16 11:31N 30°03' W 093°44'0 0.0
2018-Feb-16 11:01N 30°03' W 093°44'0 0.0
2018-Feb-16 10:30N 30°03' W 093°44'0 0.0
2018-Feb-16 10:00N 30°03' W 093°44'0 0.0
2018-Feb-16 09:30N 30°03' W 093°44'0 0.0
2018-Feb-16 09:01N 30°03' W 093°44'0 0.0
2018-Feb-16 08:30N 30°03' W 093°44'0 0.0
2018-Feb-16 08:00N 30°03' W 093°44'0 0.0
2018-Feb-16 07:31N 30°03' W 093°44'0 0.0
2018-Feb-16 07:00N 30°03' W 093°44'0 0.0
2018-Feb-16 06:31N 30°03' W 093°44'0 0.0
2018-Feb-16 06:01N 30°03' W 093°44'0 0.0
2018-Feb-16 05:30N 30°03' W 093°44'0 0.0
2018-Feb-16 05:00N 30°03' W 093°44'0 0.0
2018-Feb-16 04:30N 30°03' W 093°44'0 0.0
2018-Feb-16 04:01N 30°03' W 093°44'0 0.0
2018-Feb-16 03:30N 30°03' W 093°44'0 0.0
2018-Feb-16 02:59N 30°03' W 093°44'0 0.0
2018-Feb-16 02:23N 30°03' W 093°44'0 0.0
2018-Feb-16 01:57N 30°03' W 093°44'0 0.0
2018-Feb-16 01:31N 30°03' W 093°44'0 0.0
2018-Feb-16 00:58N 30°03' W 093°44'0 0.0
2018-Feb-16 00:30N 30°03' W 093°44'0 0.0
2018-Feb-16 00:00N 30°03' W 093°44'1 2.7
2018-Feb-15 23:29N 30°03' W 093°42'3 5.6
2018-Feb-15 22:59N 30°04' W 093°39'3 5.4
2018-Feb-15 22:30N 30°04' W 093°36'2 4.6
2018-Feb-15 22:00N 30°04' W 093°34'1 1.1
2018-Feb-15 21:30N 30°04' W 093°33'1 2.4
2018-Feb-15 21:01N 30°04' W 093°31'2 4.7
2018-Feb-15 20:30N 30°04' W 093°29'2 5.0
2018-Feb-15 20:00N 30°04' W 093°26'3 5.4
2018-Feb-15 19:30N 30°04' W 093°23'1 1.3
2018-Feb-15 19:00N 30°04' W 093°22'0 0.1
2018-Feb-15 18:30N 30°04' W 093°22'0 0.0
2018-Feb-15 18:00N 30°04' W 093°22'0 0.0
2018-Feb-15 17:30N 30°04' W 093°22'1 1.2
2018-Feb-15 17:00N 30°04' W 093°21'0 0.0
2018-Feb-15 16:30N 30°04' W 093°21'0 0.0
2018-Feb-15 16:00N 30°04' W 093°21'0 0.0
2018-Feb-15 15:30N 30°04' W 093°21'0 0.0
2018-Feb-15 15:00N 30°04' W 093°21'0 0.0
2018-Feb-15 14:30N 30°04' W 093°21'0 0.9
2018-Feb-15 14:00N 30°04' W 093°22'0 0.7
2018-Feb-15 13:30N 30°04' W 093°22'0 0.0
2018-Feb-15 13:00N 30°04' W 093°22'0 0.0
2018-Feb-15 12:30N 30°04' W 093°22'0 0.0
2018-Feb-15 12:00N 30°04' W 093°22'0 0.0
2018-Feb-15 11:30N 30°04' W 093°22'0 0.0
2018-Feb-15 11:00N 30°04' W 093°22'0 0.0
2018-Feb-15 10:30N 30°04' W 093°22'0 0.0
2018-Feb-15 10:00N 30°04' W 093°22'0 0.0
2018-Feb-15 09:30N 30°04' W 093°22'0 0.0
2018-Feb-15 09:00N 30°04' W 093°22'0 0.0
2018-Feb-15 08:30N 30°04' W 093°22'0 0.0
2018-Feb-15 08:00N 30°04' W 093°22'0 0.0
2018-Feb-15 07:30N 30°04' W 093°22'0 0.0
2018-Feb-15 07:00N 30°04' W 093°22'0 0.0
2018-Feb-15 06:30N 30°04' W 093°22'0 0.0
2018-Feb-15 06:00N 30°04' W 093°22'0 0.0
2018-Feb-15 05:30N 30°04' W 093°22'0 0.0
2018-Feb-15 05:00N 30°04' W 093°22'0 0.0
2018-Feb-15 04:30N 30°04' W 093°22'0 0.0
2018-Feb-15 04:00N 30°04' W 093°22'0 0.0
2018-Feb-15 03:30N 30°04' W 093°22'0 0.0
2018-Feb-15 03:00N 30°04' W 093°22'0 0.0
2018-Feb-15 02:30N 30°04' W 093°22'0 0.0
2018-Feb-15 02:00N 30°04' W 093°22'0 0.0
2018-Feb-15 01:30N 30°04' W 093°22'0 0.0
2018-Feb-15 01:00N 30°04' W 093°22'0 0.0
2018-Feb-15 00:30N 30°04' W 093°22'0 0.0
2018-Feb-15 00:00N 30°04' W 093°22'0 0.0
2018-Feb-14 23:30N 30°04' W 093°22'0 0.0
2018-Feb-14 23:00N 30°04' W 093°22'0 0.0
2018-Feb-14 22:30N 30°04' W 093°22'0 0.0
2018-Feb-14 22:00N 30°04' W 093°22'0 0.0
2018-Feb-14 21:30N 30°04' W 093°22'2 4.6
2018-Feb-14 21:00N 30°04' W 093°25'3 5.8
2018-Feb-14 20:30N 30°04' W 093°28'0 0.4
2018-Feb-14 20:00N 30°04' W 093°28'3 5.2
2018-Feb-14 19:30N 30°04' W 093°25'2 4.8
2018-Feb-14 19:00N 30°04' W 093°22'0 0.9
2018-Feb-14 18:30N 30°04' W 093°22'3 6.2
2018-Feb-14 18:00N 30°04' W 093°25'3 6.1
2018-Feb-14 17:30N 30°04' W 093°29'1 2.0
2018-Feb-14 17:00N 30°04' W 093°28'2 4.6
2018-Feb-14 16:30N 30°04' W 093°25'2 4.9
2018-Feb-14 16:00N 30°04' W 093°22'0 0.6
2018-Feb-14 15:30N 30°04' W 093°22'0 0.0
2018-Feb-14 15:00N 30°04' W 093°22'0 0.0
2018-Feb-14 14:30N 30°04' W 093°22'0 0.0
2018-Feb-14 14:00N 30°04' W 093°22'0 0.0
2018-Feb-14 13:30N 30°04' W 093°22'0 0.0
2018-Feb-14 13:00N 30°04' W 093°22'0 0.0
2018-Feb-14 12:30N 30°04' W 093°22'0 0.0
2018-Feb-14 12:00N 30°04' W 093°22'0 0.0
2018-Feb-14 11:30N 30°04' W 093°22'0 0.0
2018-Feb-14 11:00N 30°04' W 093°22'0 0.0
2018-Feb-14 10:30N 30°04' W 093°22'1 1.7
2018-Feb-14 10:00N 30°04' W 093°21'3 5.6
2018-Feb-14 09:30N 30°06' W 093°20'3 6.5
2018-Feb-14 09:01N 30°10' W 093°19'0 0.1
2018-Feb-14 08:30N 30°10' W 093°19'0 0.0
2018-Feb-14 08:00N 30°10' W 093°19'0 0.0
2018-Feb-14 07:30N 30°10' W 093°19'0 0.0
2018-Feb-14 06:59N 30°10' W 093°19'0 0.0
2018-Feb-14 06:30N 30°10' W 093°19'0 0.0
2018-Feb-14 06:00N 30°10' W 093°19'0 0.0
2018-Feb-14 05:30N 30°10' W 093°19'0 0.0
2018-Feb-14 05:00N 30°10' W 093°19'0 0.0
2018-Feb-14 04:30N 30°10' W 093°19'0 0.0
2018-Feb-14 04:00N 30°10' W 093°19'0 0.0
2018-Feb-14 03:30N 30°10' W 093°19'0 0.0
2018-Feb-14 03:00N 30°10' W 093°19'0 0.0
2018-Feb-14 02:30N 30°10' W 093°19'0 0.0
2018-Feb-14 02:00N 30°10' W 093°19'0 0.0
2018-Feb-14 01:30N 30°10' W 093°19'0 0.0
2018-Feb-14 01:00N 30°10' W 093°19'0 0.0
2018-Feb-14 00:30N 30°10' W 093°19'0 0.0
2018-Feb-14 00:00N 30°10' W 093°19'0 0.0
2018-Feb-13 23:30N 30°10' W 093°19'0 0.0
2018-Feb-13 23:00N 30°10' W 093°19'0 0.0
2018-Feb-13 22:30N 30°10' W 093°19'0 0.0
2018-Feb-13 22:00N 30°10' W 093°19'0 0.0
2018-Feb-13 21:30N 30°10' W 093°19'0 0.0
2018-Feb-13 21:00N 30°10' W 093°19'0 0.0
2018-Feb-13 20:30N 30°10' W 093°19'0 0.0
2018-Feb-13 20:00N 30°10' W 093°19'0 0.0
2018-Feb-13 19:30N 30°10' W 093°19'0 0.0
2018-Feb-13 19:00N 30°10' W 093°19'0 0.0
2018-Feb-13 18:30N 30°10' W 093°19'0 0.0
2018-Feb-13 18:00N 30°10' W 093°19'0 0.0
2018-Feb-13 17:30N 30°10' W 093°19'0 0.0
2018-Feb-13 17:00N 30°10' W 093°19'0 0.2
2018-Feb-13 16:30N 30°10' W 093°20'2 4.1
2018-Feb-13 15:59N 30°07' W 093°20'2 4.2
2018-Feb-13 15:30N 30°05' W 093°20'2 3.4
2018-Feb-13 15:00N 30°04' W 093°21'1 2.2
2018-Feb-13 14:30N 30°04' W 093°22'0 0.0
2018-Feb-13 14:00N 30°04' W 093°22'0 0.0
2018-Feb-13 13:30N 30°04' W 093°22'0 0.0
2018-Feb-13 13:00N 30°04' W 093°22'0 0.0
2018-Feb-13 12:30N 30°04' W 093°22'0 0.0
2018-Feb-13 12:00N 30°04' W 093°22'0 0.0
2018-Feb-13 11:30N 30°04' W 093°22'0 0.0
2018-Feb-13 11:00N 30°04' W 093°22'0 0.0
2018-Feb-13 10:30N 30°04' W 093°22'0 0.0
2018-Feb-13 10:00N 30°04' W 093°22'0 0.0
2018-Feb-13 09:30N 30°04' W 093°22'0 0.0
2018-Feb-13 08:59N 30°04' W 093°22'0 0.1
2018-Feb-13 08:31N 30°04' W 093°22'0 0.0
2018-Feb-13 07:59N 30°04' W 093°22'0 0.0
2018-Feb-13 07:28N 30°04' W 093°22'0 0.0
2018-Feb-13 07:00N 30°04' W 093°22'0 0.0
2018-Feb-13 06:30N 30°04' W 093°22'0 0.0
2018-Feb-13 06:00N 30°04' W 093°22'0 0.0
2018-Feb-13 05:29N 30°04' W 093°22'0 0.0
2018-Feb-13 05:00N 30°04' W 093°22'0 0.0
2018-Feb-13 04:30N 30°04' W 093°22'0 0.0
2018-Feb-13 04:00N 30°04' W 093°22'0 0.0
2018-Feb-13 03:30N 30°04' W 093°22'0 0.0
2018-Feb-13 03:00N 30°04' W 093°22'0 0.0
2018-Feb-13 02:30N 30°04' W 093°22'0 0.0
2018-Feb-13 02:00N 30°04' W 093°22'0 0.0
2018-Feb-13 01:30N 30°04' W 093°22'0 0.0
2018-Feb-13 01:00N 30°04' W 093°22'0 0.0
2018-Feb-13 00:30N 30°04' W 093°22'0 0.0
2018-Feb-13 00:00N 30°04' W 093°22'0 0.0
2018-Feb-12 23:30N 30°04' W 093°22'0 0.0
2018-Feb-12 23:00N 30°04' W 093°22'0 0.0
2018-Feb-12 22:30N 30°04' W 093°22'0 0.0
2018-Feb-12 22:00N 30°04' W 093°22'0 0.0
2018-Feb-12 21:29N 30°04' W 093°22'0 0.0
2018-Feb-12 20:55N 30°04' W 093°22'0 0.0
2018-Feb-12 20:27N 30°04' W 093°22'0 0.0
2018-Feb-12 20:00N 30°04' W 093°22'0 0.7
2018-Feb-12 19:25N 30°04' W 093°21'0 0.0
2018-Feb-12 19:00N 30°04' W 093°21'0 0.0
2018-Feb-12 18:30N 30°04' W 093°21'0 0.0
2018-Feb-12 18:00N 30°04' W 093°21'0 0.0
2018-Feb-12 17:29N 30°04' W 093°21'0 0.6
2018-Feb-12 17:00N 30°04' W 093°22'0 0.3
2018-Feb-12 16:29N 30°04' W 093°22'0 0.0
2018-Feb-12 16:00N 30°04' W 093°22'0 0.0
2018-Feb-12 15:30N 30°04' W 093°22'0 0.0
2018-Feb-12 14:59N 30°04' W 093°22'0 0.0
2018-Feb-12 14:30N 30°04' W 093°22'0 0.0
2018-Feb-12 14:00N 30°04' W 093°22'0 0.0
2018-Feb-12 13:30N 30°04' W 093°22'0 0.0
2018-Feb-12 13:00N 30°04' W 093°22'0 0.1
2018-Feb-12 12:31N 30°04' W 093°22'0 0.1
2018-Feb-12 11:59N 30°04' W 093°22'0 0.3
2018-Feb-12 11:30N 30°04' W 093°22'2 4.7
2018-Feb-12 10:59N 30°04' W 093°25'2 4.9
2018-Feb-12 10:30N 30°04' W 093°28'3 4.9
2018-Feb-12 09:55N 30°04' W 093°31'2 4.9
2018-Feb-12 09:24N 30°04' W 093°34'2 4.8
2018-Feb-12 08:55N 30°04' W 093°37'2 4.9
2018-Feb-12 08:29N 30°04' W 093°39'2 4.9
2018-Feb-12 08:00N 30°03' W 093°42'2 4.2
2018-Feb-12 07:29N 30°03' W 093°44'3 5.6
2018-Feb-12 07:00N 30°00' W 093°46'3 6.1
2018-Feb-12 06:30N 29°59' W 093°49'3 6.1
2018-Feb-12 06:00N 29°57' W 093°52'4 7.3
2018-Feb-12 05:30N 29°54' W 093°54'4 7.2
2018-Feb-12 05:00N 29°51' W 093°57'3 5.3
2018-Feb-12 04:30N 29°49' W 093°59'0 0.1
2018-Feb-12 04:00N 29°49' W 093°59'0 0.0
2018-Feb-12 03:30N 29°49' W 093°59'0 0.1
2018-Feb-12 03:00N 29°49' W 093°59'1 2.7
2018-Feb-12 02:30N 29°48' W 093°60'1 2.3
2018-Feb-12 02:00N 29°47' W 094°01'2 3.9
2018-Feb-12 01:30N 29°46' W 094°03'2 4.6
2018-Feb-12 01:00N 29°45' W 094°05'2 4.5
2018-Feb-12 00:30N 29°43' W 094°07'2 4.2
2018-Feb-12 00:01N 29°42' W 094°09'2 3.9
2018-Feb-11 23:29N 29°41' W 094°11'2 3.4
2018-Feb-11 23:00N 29°41' W 094°12'2 4.1
2018-Feb-11 22:30N 29°40' W 094°15'2 4.1
2018-Feb-11 22:00N 29°39' W 094°17'2 3.7
2018-Feb-11 21:30N 29°38' W 094°19'2 3.2
2018-Feb-11 20:59N 29°37' W 094°20'5 1.5
2018-Feb-11 17:41N 29°34' W 094°25'1 3.2
2018-Feb-11 17:28N 29°34' W 094°26'2 2.0
2018-Feb-11 16:41N 29°34' W 094°28'0 0.0
2018-Feb-11 16:30N 29°34' W 094°28'1 0.8
2018-Feb-11 14:55N 29°33' W 094°28'2 3.4
2018-Feb-11 14:13N 29°31' W 094°31'1 4.1
2018-Feb-11 13:59N 29°31' W 094°31'2 3.5
2018-Feb-11 13:28N 29°30' W 094°33'2 3.1
2018-Feb-11 12:59N 29°29' W 094°35'4 3.8
2018-Feb-11 11:53N 29°28' W 094°39'12 3.3
2018-Feb-11 08:22N 29°30' W 094°52'3 7.9
2018-Feb-11 08:00N 29°33' W 094°54'4 7.5
2018-Feb-11 07:30N 29°36' W 094°57'4 7.4
2018-Feb-11 07:00N 29°39' W 094°58'3 5.0
2018-Feb-11 06:28N 29°41' W 095°00'0 0.2
2018-Feb-11 05:57N 29°41' W 095°00'0 0.0
2018-Feb-11 05:10N 29°41' W 095°00'0 0.0
2018-Feb-11 04:40N 29°41' W 095°00'0 0.0
2018-Feb-11 04:23N 29°41' W 095°00'0 0.0
2018-Feb-11 03:54N 29°41' W 095°00'0 0.0
2018-Feb-11 03:29N 29°41' W 095°00'0 0.0
2018-Feb-11 02:54N 29°41' W 095°00'0 0.0
2018-Feb-11 02:17N 29°41' W 095°00'0 0.0
2018-Feb-11 02:00N 29°41' W 095°00'0 0.0
2018-Feb-11 01:23N 29°41' W 095°00'0 0.0
2018-Feb-11 01:00N 29°41' W 095°00'0 0.0
2018-Feb-11 00:28N 29°41' W 095°00'0 0.1
2018-Feb-11 00:00N 29°41' W 095°00'0 0.0
2018-Feb-10 23:30N 29°41' W 095°00'0 0.0
2018-Feb-10 22:42N 29°41' W 095°00'0 0.0
2018-Feb-10 22:22N 29°41' W 095°00'0 0.0
2018-Feb-10 21:55N 29°41' W 095°00'0 0.1
2018-Feb-10 21:30N 29°41' W 095°00'0 0.0
2018-Feb-10 21:00N 29°41' W 095°00'0 0.0
2018-Feb-10 20:30N 29°41' W 095°00'0 0.0
2018-Feb-10 19:57N 29°41' W 095°00'1 1.9
2018-Feb-10 19:30N 29°41' W 094°59'0 0.0
2018-Feb-08 19:30N 29°41' W 094°59'4 8.5
2018-Feb-08 19:00N 29°37' W 094°57'4 8.7
2018-Feb-08 18:30N 29°33' W 094°55'  

Dump ship's entire track history